createdAt,value
2023-02-05T00:00:23.111Z,16.63
2023-02-05T00:02:50.872Z,15.52
2023-02-05T00:05:18.564Z,15.70
2023-02-05T00:07:46.504Z,14.87
2023-02-05T00:10:14.684Z,15.67
2023-02-05T00:12:42.531Z,14.23
2023-02-05T00:15:11.469Z,14.87
2023-02-05T00:17:40.692Z,13.20
2023-02-05T00:20:09.885Z,13.87
2023-02-05T00:22:37.765Z,14.20
2023-02-05T00:25:06.356Z,17.10
2023-02-05T00:27:35.204Z,22.03
2023-02-05T00:30:04.160Z,23.23
2023-02-05T00:32:35.218Z,22.47
2023-02-05T00:35:07.601Z,18.77
2023-02-05T00:37:36.984Z,15.17
2023-02-05T00:40:06.581Z,26.07
2023-02-05T00:42:36.940Z,20.57
2023-02-05T00:45:08.064Z,13.20
2023-02-05T00:47:39.574Z,12.60
2023-02-05T00:50:11.539Z,12.37
2023-02-05T00:52:40.887Z,12.07
2023-02-05T00:55:09.999Z,12.83
2023-02-05T00:57:39.788Z,13.10
2023-02-05T01:00:08.874Z,13.07
2023-02-05T01:02:36.843Z,13.43
2023-02-05T01:05:05.422Z,12.87
2023-02-05T01:07:34.513Z,11.23
2023-02-05T01:10:02.302Z,10.93
2023-02-05T01:12:30.121Z,11.50
2023-02-05T01:14:57.802Z,11.27
2023-02-05T01:17:25.517Z,12.63
2023-02-05T01:19:53.833Z,11.40
2023-02-05T01:22:21.790Z,12.50
2023-02-05T01:24:53.047Z,12.10
2023-02-05T01:27:20.882Z,10.57
2023-02-05T01:29:48.669Z,12.35
2023-02-05T01:32:16.554Z,10.00
2023-02-05T01:34:45.081Z,9.77
2023-02-05T01:37:13.489Z,9.38
2023-02-05T01:39:41.579Z,9.40
2023-02-05T01:42:18.903Z,9.73
2023-02-05T01:45:39.965Z,9.30
2023-02-05T01:48:10.671Z,10.57
2023-02-05T01:50:43.424Z,10.07
2023-02-05T01:53:14.893Z,11.00
2023-02-05T01:55:47.096Z,10.55
2023-02-05T01:58:16.334Z,10.07
2023-02-05T02:00:44.379Z,9.60
2023-02-05T02:03:15.050Z,8.93
2023-02-05T02:05:42.795Z,9.10
2023-02-05T02:08:11.713Z,9.93
2023-02-05T02:10:40.353Z,10.65
2023-02-05T02:13:08.100Z,11.37
2023-02-05T02:15:37.689Z,11.40
2023-02-05T02:18:25.678Z,11.98
2023-02-05T02:21:22.404Z,9.48
2023-02-05T02:24:15.097Z,9.03
2023-02-05T02:27:09.447Z,8.27
2023-02-05T02:29:48.140Z,7.50
2023-02-05T02:32:22.158Z,7.47
2023-02-05T02:34:52.969Z,6.95
2023-02-05T02:37:26.913Z,6.40
2023-02-05T02:40:01.397Z,6.15
2023-02-05T02:42:35.491Z,5.73
2023-02-05T02:45:09.719Z,5.90
2023-02-05T02:47:41.889Z,7.27
2023-02-05T02:50:14.378Z,7.33
2023-02-05T02:52:47.066Z,6.63
2023-02-05T02:55:17.808Z,6.00
2023-02-05T02:57:51.915Z,6.40
2023-02-05T03:00:26.879Z,6.33
2023-02-05T03:03:01.192Z,6.25
2023-02-05T03:05:31.131Z,5.30
2023-02-05T03:08:02.606Z,6.60
2023-02-05T03:10:41.011Z,5.03
2023-02-05T03:13:09.916Z,5.37
2023-02-05T03:15:42.382Z,4.80
2023-02-05T03:18:10.483Z,5.10
2023-02-05T03:20:43.988Z,6.03
2023-02-05T03:23:11.937Z,5.03
2023-02-05T03:25:39.683Z,5.23
2023-02-05T03:28:12.162Z,4.95
2023-02-05T03:30:53.373Z,5.40
2023-02-05T03:33:36.385Z,4.40
2023-02-05T03:36:14.274Z,4.40
2023-02-05T03:38:53.424Z,4.20
2023-02-05T03:41:47.371Z,3.75
2023-02-05T03:44:29.237Z,3.88
2023-02-05T03:47:04.138Z,4.17
2023-02-05T03:49:44.181Z,4.40
2023-02-05T03:52:17.608Z,4.43
2023-02-05T03:54:53.620Z,3.83
2023-02-05T03:57:32.016Z,4.57
2023-02-05T04:00:00.649Z,4.35
2023-02-05T04:02:32.509Z,4.22
2023-02-05T04:05:00.184Z,4.93
2023-02-05T04:07:30.081Z,4.70
2023-02-05T04:09:57.751Z,5.30
2023-02-05T04:12:25.794Z,4.83
2023-02-05T04:14:54.522Z,4.85
2023-02-05T04:17:22.256Z,5.22
2023-02-05T04:19:51.412Z,4.75
2023-02-05T04:22:20.833Z,4.60
2023-02-05T04:24:48.969Z,5.10
2023-02-05T04:27:17.833Z,4.93
2023-02-05T04:29:46.044Z,5.35
2023-02-05T04:32:13.949Z,5.20
2023-02-05T04:34:41.662Z,5.60
2023-02-05T04:37:13.327Z,5.82
2023-02-05T04:39:41.477Z,5.87
2023-02-05T04:42:09.252Z,5.65
2023-02-05T04:44:36.900Z,5.38
2023-02-05T04:47:04.657Z,4.90
2023-02-05T04:49:33.632Z,5.50
2023-02-05T04:52:01.385Z,4.90
2023-02-05T04:54:31.841Z,5.75
2023-02-05T04:56:59.789Z,5.72
2023-02-05T04:59:29.931Z,5.30
2023-02-05T05:01:58.127Z,5.18
2023-02-05T05:04:26.206Z,5.10
2023-02-05T05:06:54.372Z,6.03
2023-02-05T05:09:24.057Z,6.10
2023-02-05T05:11:54.241Z,5.70
2023-02-05T05:14:22.027Z,5.47
2023-02-05T05:16:50.354Z,5.32
2023-02-05T05:19:18.162Z,5.65
2023-02-05T05:21:46.053Z,5.85
2023-02-05T05:24:13.771Z,5.90
2023-02-05T05:26:44.022Z,5.93
2023-02-05T05:29:14.385Z,6.80
2023-02-05T05:31:42.687Z,6.50
2023-02-05T05:34:10.453Z,5.95
2023-02-05T05:36:39.947Z,6.15
2023-02-05T05:39:21.593Z,6.50
2023-02-05T05:42:06.790Z,6.30
2023-02-05T05:44:36.071Z,6.30
2023-02-05T05:47:04.292Z,6.13
2023-02-05T05:49:32.019Z,6.43
2023-02-05T05:52:00.034Z,6.47
2023-02-05T05:54:27.884Z,6.80
2023-02-05T05:56:55.921Z,6.13
2023-02-05T05:59:23.977Z,6.47
2023-02-05T06:01:53.501Z,6.88
2023-02-05T06:04:21.252Z,6.55
2023-02-05T06:06:49.236Z,6.63
2023-02-05T06:09:16.925Z,7.13
2023-02-05T06:11:44.580Z,6.57
2023-02-05T06:14:12.279Z,7.03
2023-02-05T06:16:41.359Z,7.05
2023-02-05T06:19:10.521Z,6.93
2023-02-05T06:21:38.332Z,6.95
2023-02-05T06:24:06.813Z,7.03
2023-02-05T06:26:34.528Z,7.68
2023-02-05T06:29:03.271Z,6.85
2023-02-05T06:31:32.054Z,8.30
2023-02-05T06:34:01.133Z,7.10
2023-02-05T06:36:30.661Z,7.65
2023-02-05T06:38:58.974Z,8.02
2023-02-05T06:41:27.484Z,8.45
2023-02-05T06:43:55.121Z,7.30
2023-02-05T06:46:23.049Z,7.47
2023-02-05T06:48:50.723Z,8.18
2023-02-05T06:51:18.497Z,7.82
2023-02-05T06:53:48.207Z,7.95
2023-02-05T06:56:16.106Z,8.13
2023-02-05T06:58:43.993Z,8.40
2023-02-05T07:01:11.786Z,8.80
2023-02-05T07:03:39.882Z,8.30
2023-02-05T07:06:08.180Z,8.50
2023-02-05T07:08:36.476Z,8.40
2023-02-05T07:11:08.217Z,8.45
2023-02-05T07:13:36.580Z,9.10
2023-02-05T07:16:05.406Z,8.82
2023-02-05T07:18:34.209Z,8.98
2023-02-05T07:21:06.648Z,9.48
2023-02-05T07:23:35.287Z,8.77
2023-02-05T07:26:09.587Z,9.32
2023-02-05T07:28:37.978Z,9.43
2023-02-05T07:31:07.903Z,8.73
2023-02-05T07:33:37.010Z,9.68
2023-02-05T07:36:06.243Z,8.68
2023-02-05T07:38:35.353Z,9.48
2023-02-05T07:41:04.936Z,8.68
2023-02-05T07:43:35.279Z,9.65
2023-02-05T07:46:05.934Z,8.88
2023-02-05T07:48:34.201Z,8.98
2023-02-05T07:51:03.123Z,8.40
2023-02-05T07:53:31.176Z,9.45
2023-02-05T07:56:03.514Z,10.45
2023-02-05T07:58:31.274Z,9.60
2023-02-05T08:01:03.001Z,10.93
2023-02-05T08:03:32.638Z,9.93
2023-02-05T08:06:00.807Z,9.90
2023-02-05T08:08:28.481Z,9.10
2023-02-05T08:10:58.116Z,8.52
2023-02-05T08:13:26.126Z,10.18
2023-02-05T08:15:53.966Z,9.85
2023-02-05T08:18:23.621Z,10.02
2023-02-05T08:20:53.366Z,9.25
2023-02-05T08:23:21.587Z,10.45
2023-02-05T08:25:49.574Z,10.07
2023-02-05T08:28:17.434Z,10.30
2023-02-05T08:30:45.323Z,10.95
2023-02-05T08:33:13.078Z,10.55
2023-02-05T08:35:42.912Z,10.80
2023-02-05T08:38:11.205Z,10.73
2023-02-05T08:40:40.446Z,11.48
2023-02-05T08:43:08.528Z,11.20
2023-02-05T08:45:37.552Z,11.40
2023-02-05T08:48:06.734Z,11.23
2023-02-05T08:50:34.962Z,10.88
2023-02-05T08:53:07.628Z,11.40
2023-02-05T08:55:35.898Z,11.65
2023-02-05T08:58:03.692Z,11.60
2023-02-05T09:00:33.306Z,10.70
2023-02-05T09:03:01.580Z,11.37
2023-02-05T09:05:29.446Z,11.40
2023-02-05T09:07:59.313Z,11.30
2023-02-05T09:10:28.506Z,12.02
2023-02-05T09:12:56.346Z,12.80
2023-02-05T09:15:24.126Z,12.80
2023-02-05T09:17:51.891Z,12.80
2023-02-05T09:20:19.776Z,12.97
2023-02-05T09:22:47.690Z,12.10
2023-02-05T09:25:15.743Z,12.80
2023-02-05T09:27:44.886Z,12.05
2023-02-05T09:30:14.405Z,12.90
2023-02-05T09:32:42.249Z,13.60
2023-02-05T09:35:10.989Z,13.13
2023-02-05T09:37:39.314Z,13.30
2023-02-05T09:40:24.255Z,13.50
2023-02-05T09:43:04.670Z,12.85
2023-02-05T09:45:43.929Z,14.05
2023-02-05T09:48:33.574Z,14.87
2023-02-05T09:51:02.085Z,14.13
2023-02-05T09:53:36.821Z,19.40
2023-02-05T09:56:07.906Z,21.20
2023-02-05T09:58:43.019Z,14.15
2023-02-05T10:01:19.071Z,13.60
2023-02-05T10:03:51.140Z,14.17
2023-02-05T10:06:38.791Z,15.38
2023-02-05T10:09:17.123Z,14.35
2023-02-05T10:11:52.115Z,15.02
2023-02-05T10:14:36.621Z,12.95
2023-02-05T10:17:19.285Z,13.40
2023-02-05T10:20:23.662Z,13.63
2023-02-05T10:23:05.517Z,14.57
2023-02-05T10:25:47.501Z,14.43
2023-02-05T10:28:33.783Z,14.13
2023-02-05T10:31:14.832Z,14.13
2023-02-05T10:33:49.033Z,13.63
2023-02-05T10:36:21.211Z,15.00
2023-02-05T10:38:51.084Z,13.82
2023-02-05T10:41:26.403Z,14.20
2023-02-05T10:44:00.951Z,14.73
2023-02-05T10:46:41.532Z,15.13
2023-02-05T10:49:21.089Z,15.07
2023-02-05T10:51:49.056Z,15.07
2023-02-05T10:54:22.583Z,15.48
2023-02-05T10:56:52.242Z,15.57
2023-02-05T10:59:26.985Z,16.08
2023-02-05T11:02:03.054Z,15.88
2023-02-05T11:04:39.004Z,15.38
2023-02-05T11:07:13.492Z,16.60
2023-02-05T11:09:41.669Z,15.38
2023-02-05T11:12:21.172Z,16.47
2023-02-05T11:14:58.701Z,17.70
2023-02-05T11:17:33.095Z,16.98
2023-02-05T11:20:04.589Z,16.33
2023-02-05T11:22:35.370Z,16.80
2023-02-05T11:25:15.131Z,16.83
2023-02-05T11:27:43.263Z,17.88
2023-02-05T11:30:49.573Z,18.50
2023-02-05T11:33:27.095Z,29.90
2023-02-05T11:35:59.067Z,27.65
2023-02-05T11:38:33.237Z,17.77
2023-02-05T11:41:03.827Z,17.55
2023-02-05T11:43:35.037Z,18.17
2023-02-05T11:46:07.723Z,17.00
2023-02-05T11:48:41.202Z,17.05
2023-02-05T11:51:10.905Z,18.27
2023-02-05T11:53:45.040Z,18.52
2023-02-05T11:56:22.275Z,20.08
2023-02-05T11:58:59.956Z,19.20
2023-02-05T12:01:32.394Z,17.88
2023-02-05T12:04:04.524Z,18.70
2023-02-05T12:06:38.539Z,18.25
2023-02-05T12:09:07.161Z,18.98
2023-02-05T12:12:03.954Z,17.73
2023-02-05T12:14:44.197Z,20.27
2023-02-05T12:17:39.483Z,18.05
2023-02-05T12:20:22.023Z,19.15
2023-02-05T12:23:09.645Z,19.25
2023-02-05T12:25:46.062Z,19.38
2023-02-05T12:28:29.162Z,21.15
2023-02-05T12:31:11.718Z,20.08
2023-02-05T12:33:55.133Z,19.65
2023-02-05T12:36:40.335Z,18.83
2023-02-05T12:39:24.064Z,19.55
2023-02-05T12:42:07.493Z,22.70
2023-02-05T12:44:50.931Z,19.38
2023-02-05T12:47:33.360Z,17.80
2023-02-05T12:50:15.934Z,19.73
2023-02-05T12:53:04.481Z,19.25
2023-02-05T12:55:48.650Z,20.33
2023-02-05T12:58:20.692Z,19.95
2023-02-05T13:00:53.861Z,20.80
2023-02-05T13:03:30.548Z,19.30
2023-02-05T13:06:05.586Z,21.05
2023-02-05T13:08:43.164Z,20.55
2023-02-05T13:11:17.855Z,19.90
2023-02-05T13:13:56.231Z,23.33
2023-02-05T13:16:34.146Z,22.95
2023-02-05T13:19:08.246Z,22.42
2023-02-05T13:21:53.818Z,21.40
2023-02-05T13:24:46.566Z,20.05
2023-02-05T13:27:52.678Z,19.17
2023-02-05T13:30:24.223Z,18.95
2023-02-05T13:32:58.585Z,19.05
2023-02-05T13:35:29.524Z,18.83
2023-02-05T13:38:14.753Z,18.70
2023-02-05T13:41:13.372Z,18.88
2023-02-05T13:43:59.195Z,19.20
2023-02-05T13:46:44.421Z,20.80
2023-02-05T13:49:38.567Z,19.50
2023-02-05T13:52:29.832Z,19.17
2023-02-05T13:55:22.424Z,19.27
2023-02-05T13:58:19.474Z,20.27
2023-02-05T14:00:55.947Z,21.20
2023-02-05T14:03:35.056Z,21.35
2023-02-05T14:06:15.239Z,21.30
2023-02-05T14:08:43.728Z,22.50
2023-02-05T14:11:12.295Z,23.42
2023-02-05T14:13:41.737Z,24.10
2023-02-05T14:16:34.835Z,25.40
2023-02-05T14:19:16.911Z,24.20
2023-02-05T14:22:00.963Z,26.65
2023-02-05T14:24:45.151Z,28.27
2023-02-05T14:27:50.221Z,27.25
2023-02-05T14:30:50.457Z,26.80
2023-02-05T14:33:36.461Z,29.15
2023-02-05T14:36:33.044Z,28.33
2023-02-05T14:39:20.141Z,26.98
2023-02-05T14:41:53.311Z,27.92
2023-02-05T14:44:30.725Z,29.17
2023-02-05T14:47:03.957Z,29.30
2023-02-05T14:49:43.006Z,30.73
2023-02-05T14:52:28.661Z,31.98
2023-02-05T14:55:01.078Z,26.83
2023-02-05T14:57:38.089Z,25.55
2023-02-05T15:00:09.104Z,22.98
2023-02-05T15:03:16.942Z,22.90
2023-02-05T15:05:52.204Z,26.05
2023-02-05T15:08:26.978Z,25.77
2023-02-05T15:11:04.822Z,26.08
2023-02-05T15:13:34.047Z,25.00
2023-02-05T15:16:17.783Z,24.23
2023-02-05T15:18:50.146Z,22.00
2023-02-05T15:21:24.374Z,20.85
2023-02-05T15:23:57.906Z,20.15
2023-02-05T15:26:33.226Z,19.70
2023-02-05T15:29:05.673Z,18.13
2023-02-05T15:31:43.057Z,16.27
2023-02-05T15:34:32.079Z,17.70
2023-02-05T15:37:06.444Z,19.38
2023-02-05T15:39:45.867Z,19.98
2023-02-05T15:42:19.099Z,20.85
2023-02-05T15:44:50.170Z,21.42
2023-02-05T15:47:22.245Z,21.00
2023-02-05T15:49:54.217Z,21.48
2023-02-05T15:52:25.436Z,22.50
2023-02-05T15:54:57.275Z,22.52
2023-02-05T15:57:27.681Z,19.73
2023-02-05T15:59:57.490Z,19.27
2023-02-05T16:02:27.512Z,17.75
2023-02-05T16:05:02.669Z,18.27
2023-02-05T16:07:38.081Z,17.33
2023-02-05T16:10:17.678Z,17.23
2023-02-05T16:12:59.012Z,18.60
2023-02-05T16:15:31.968Z,16.63
2023-02-05T16:18:03.570Z,17.42
2023-02-05T16:20:36.559Z,17.67
2023-02-05T16:23:08.761Z,18.00
2023-02-05T16:25:43.473Z,17.98
2023-02-05T16:28:18.141Z,18.95
2023-02-05T16:30:48.550Z,18.83
2023-02-05T16:33:28.371Z,18.92
2023-02-05T16:35:59.550Z,18.15
2023-02-05T16:38:28.643Z,18.75
2023-02-05T16:40:59.787Z,19.65
2023-02-05T16:43:32.452Z,19.30
2023-02-05T16:46:27.727Z,19.75
2023-02-05T16:48:59.096Z,22.02
2023-02-05T16:51:35.532Z,22.63
2023-02-05T16:54:28.878Z,22.55
2023-02-05T16:57:02.273Z,23.40
2023-02-05T16:59:33.366Z,21.85
2023-02-05T17:02:03.596Z,21.90
2023-02-05T17:04:34.728Z,23.10
2023-02-05T17:07:08.608Z,22.15
2023-02-05T17:09:39.215Z,20.13
2023-02-05T17:12:39.982Z,20.02
2023-02-05T17:15:43.674Z,21.90
2023-02-05T17:18:26.557Z,20.27
2023-02-05T17:21:22.342Z,19.88
2023-02-05T17:23:52.733Z,19.83
2023-02-05T17:26:21.484Z,19.98
2023-02-05T17:28:54.076Z,19.58
2023-02-05T17:31:26.128Z,19.50
2023-02-05T17:33:55.695Z,21.02
2023-02-05T17:36:24.135Z,20.60
2023-02-05T17:38:53.567Z,21.25
2023-02-05T17:41:41.761Z,20.75
2023-02-05T17:44:12.518Z,21.60
2023-02-05T17:46:40.453Z,21.73
2023-02-05T17:49:08.913Z,21.63
2023-02-05T17:51:43.508Z,21.30
2023-02-05T17:54:15.494Z,20.70
2023-02-05T17:56:44.700Z,20.30
2023-02-05T17:59:14.072Z,19.48
2023-02-05T18:01:42.190Z,21.08
2023-02-05T18:04:09.938Z,20.55
2023-02-05T18:06:38.351Z,20.10
2023-02-05T18:09:08.097Z,20.45
2023-02-05T18:11:37.842Z,20.48
2023-02-05T18:14:06.355Z,19.73
2023-02-05T18:16:35.931Z,22.30
2023-02-05T18:19:03.884Z,21.15
2023-02-05T18:21:31.680Z,20.10
2023-02-05T18:23:59.530Z,21.05
2023-02-05T18:26:27.528Z,20.13
2023-02-05T18:28:56.800Z,20.27
2023-02-05T18:31:24.602Z,19.55
2023-02-05T18:33:53.993Z,19.48
2023-02-05T18:36:21.817Z,21.05
2023-02-05T18:38:49.564Z,20.15
2023-02-05T18:41:19.120Z,22.08
2023-02-05T18:43:47.484Z,20.48
2023-02-05T18:46:20.820Z,20.90
2023-02-05T18:48:50.000Z,21.10
2023-02-05T18:51:19.362Z,20.73
2023-02-05T18:53:49.134Z,20.23
2023-02-05T18:56:19.018Z,20.58
2023-02-05T18:58:52.964Z,20.42
2023-02-05T19:01:23.612Z,20.50
2023-02-05T19:03:54.412Z,19.10
2023-02-05T19:06:23.163Z,20.55
2023-02-05T19:08:51.468Z,19.77
2023-02-05T19:11:22.868Z,21.20
2023-02-05T19:13:56.167Z,20.13
2023-02-05T19:16:26.830Z,19.23
2023-02-05T19:18:55.285Z,19.35
2023-02-05T19:21:25.055Z,20.65
2023-02-05T19:23:54.618Z,19.73
2023-02-05T19:26:24.273Z,20.00
2023-02-05T19:28:55.970Z,19.80
2023-02-05T19:31:27.287Z,20.05
2023-02-05T19:33:56.902Z,19.65
2023-02-05T19:36:25.522Z,20.17
2023-02-05T19:38:53.641Z,18.85
2023-02-05T19:41:25.260Z,17.38
2023-02-05T19:43:55.191Z,18.20
2023-02-05T19:46:26.971Z,17.05
2023-02-05T19:48:56.746Z,18.05
2023-02-05T19:51:25.495Z,18.10
2023-02-05T19:53:57.492Z,17.45
2023-02-05T19:56:28.259Z,17.77
2023-02-05T19:58:58.041Z,16.13
2023-02-05T20:01:36.731Z,16.23
2023-02-05T20:04:09.673Z,16.67
2023-02-05T20:06:38.644Z,16.77
2023-02-05T20:09:10.318Z,16.15
2023-02-05T20:11:39.132Z,16.90
2023-02-05T20:14:07.973Z,16.07
2023-02-05T20:16:39.829Z,15.80
2023-02-05T20:19:10.054Z,15.27
2023-02-05T20:21:39.046Z,15.98
2023-02-05T20:24:08.359Z,16.13
2023-02-05T20:26:36.816Z,15.25
2023-02-05T20:29:23.477Z,15.60
2023-02-05T20:31:55.001Z,15.90
2023-02-05T20:34:25.683Z,15.70
2023-02-05T20:36:55.382Z,16.13
2023-02-05T20:39:28.577Z,16.38
2023-02-05T20:41:58.982Z,15.95
2023-02-05T20:44:29.213Z,16.73
2023-02-05T20:46:58.411Z,16.48
2023-02-05T20:49:26.927Z,16.73
2023-02-05T20:51:54.941Z,17.05
2023-02-05T20:54:23.209Z,17.63
2023-02-05T20:56:51.786Z,16.23
2023-02-05T20:59:21.301Z,15.95
2023-02-05T21:01:50.100Z,15.43
2023-02-05T21:04:20.329Z,15.40
2023-02-05T21:06:48.862Z,14.90
2023-02-05T21:09:17.730Z,14.18
2023-02-05T21:11:46.300Z,14.15
2023-02-05T21:14:14.921Z,14.10
2023-02-05T21:16:42.825Z,13.67
2023-02-05T21:19:12.329Z,13.82
2023-02-05T21:21:41.568Z,12.43
2023-02-05T21:24:12.709Z,13.55
2023-02-05T21:26:42.343Z,13.80
2023-02-05T21:29:12.624Z,13.23
2023-02-05T21:31:44.962Z,13.02
2023-02-05T21:34:15.414Z,12.98
2023-02-05T21:36:44.776Z,13.05
2023-02-05T21:39:15.788Z,13.40
2023-02-05T21:41:44.820Z,13.55
2023-02-05T21:44:13.382Z,13.00
2023-02-05T21:46:41.948Z,14.70
2023-02-05T21:49:11.949Z,14.05
2023-02-05T21:51:42.324Z,13.65
2023-02-05T21:54:12.560Z,13.70
2023-02-05T21:56:43.534Z,14.35
2023-02-05T21:59:16.537Z,14.00
2023-02-05T22:01:45.162Z,13.82
2023-02-05T22:04:15.107Z,13.65
2023-02-05T22:06:43.328Z,13.18
2023-02-05T22:09:15.353Z,12.80
2023-02-05T22:11:43.594Z,13.25
2023-02-05T22:14:12.479Z,12.70
2023-02-05T22:16:40.437Z,12.93
2023-02-05T22:19:08.436Z,11.00
2023-02-05T22:21:37.795Z,11.98
2023-02-05T22:24:07.404Z,11.35
2023-02-05T22:26:41.501Z,11.43
2023-02-05T22:29:12.313Z,10.65
2023-02-05T22:31:40.920Z,11.35
2023-02-05T22:34:08.713Z,11.30
2023-02-05T22:36:37.273Z,11.40
2023-02-05T22:39:07.179Z,11.43
2023-02-05T22:41:38.747Z,11.40
2023-02-05T22:44:09.597Z,11.77
2023-02-05T22:46:40.221Z,11.60
2023-02-05T22:49:08.519Z,11.13
2023-02-05T22:51:38.846Z,12.17
2023-02-05T22:54:07.910Z,11.93
2023-02-05T22:56:38.037Z,11.95
2023-02-05T22:59:06.978Z,11.02
2023-02-05T23:01:36.559Z,11.60
2023-02-05T23:04:06.872Z,12.80
2023-02-05T23:06:36.573Z,12.68
2023-02-05T23:09:07.037Z,11.80
2023-02-05T23:11:36.808Z,12.30
2023-02-05T23:14:06.755Z,11.48
2023-02-05T23:16:36.649Z,12.05
2023-02-05T23:19:07.464Z,11.60
2023-02-05T23:21:37.199Z,12.53
2023-02-05T23:24:06.048Z,12.40
2023-02-05T23:26:38.553Z,12.80
2023-02-05T23:29:09.161Z,13.13
2023-02-05T23:31:37.368Z,12.83
2023-02-05T23:34:05.383Z,13.50
2023-02-05T23:36:33.929Z,13.45
2023-02-05T23:39:01.843Z,13.65
2023-02-05T23:41:39.883Z,13.07
2023-02-05T23:44:13.141Z,12.90
2023-02-05T23:46:41.606Z,12.75
2023-02-05T23:49:10.532Z,12.87
2023-02-05T23:51:39.384Z,12.77
2023-02-05T23:54:07.943Z,12.50
2023-02-05T23:56:35.818Z,12.80
2023-02-05T23:59:03.562Z,12.40
